HPD weather

Public forecast

Using degrees Celsius for public forecast. Weather courtesy of forecast.io.

Closest aviation weather report (METAR) to Policia De La Provincia De Mendoza Heliport

Closest report is El Plumerillo Airport, 4.7 nm (8.7 km) NE. Retrieved 2020/08/14 04:00 UTC (45 minutes ago):

SAME 140400Z 23005KT CAVOK 08/M06 Q1005

Closest aviation forecast (TAF) to Policia De La Provincia De Mendoza Heliport

Closest forecast is El Plumerillo Airport, 4.7 nm (8.7 km) NE. Retrieved 2020-08-14 00:00 UTC (5 hours ago):

TAF SAME 132300Z 1400/1424 34005KT CAVOK TX17/1420Z TN02/1411Z BECMG 1402/1404 20005KT BECMG 1410/1412 18010KT 9999 FEW040 SCT080